createdAt,value
2019-03-23T00:03:18.244Z,4.85
2019-03-23T00:08:21.582Z,4.73
2019-03-23T00:13:24.980Z,4.59
2019-03-23T00:18:28.312Z,4.57
2019-03-23T00:23:31.632Z,4.53
2019-03-23T00:28:34.960Z,4.52
2019-03-23T00:33:38.308Z,4.49
2019-03-23T00:38:41.638Z,4.46
2019-03-23T00:43:44.980Z,4.43
2019-03-23T00:48:49.232Z,4.38
2019-03-23T00:53:52.567Z,4.25
2019-03-23T00:58:55.891Z,4.16
2019-03-23T01:03:59.240Z,4.10
2019-03-23T01:09:02.594Z,3.86
2019-03-23T01:14:06.208Z,3.78
2019-03-23T01:19:09.539Z,3.90
2019-03-23T01:24:12.843Z,3.79
2019-03-23T01:29:16.196Z,3.76
2019-03-23T01:34:19.608Z,3.72
2019-03-23T01:39:22.942Z,3.80
2019-03-23T01:44:26.273Z,3.63
2019-03-23T01:49:29.615Z,3.60
2019-03-23T01:54:32.954Z,3.56
2019-03-23T01:59:36.279Z,3.44
2019-03-23T02:04:39.607Z,3.29
2019-03-23T02:09:42.939Z,3.28
2019-03-23T02:14:46.263Z,3.24
2019-03-23T02:19:49.588Z,3.21
2019-03-23T02:24:52.916Z,3.15
2019-03-23T02:29:56.251Z,3.03
2019-03-23T02:34:59.596Z,3.00
2019-03-23T02:40:02.923Z,2.94
2019-03-23T02:45:08.616Z,2.94
2019-03-23T02:50:12.069Z,2.92
2019-03-23T02:55:15.539Z,2.82
2019-03-23T03:00:18.946Z,2.62
2019-03-23T03:05:22.301Z,2.66
2019-03-23T03:10:37.706Z,2.73
2019-03-23T03:15:41.050Z,2.65
2019-03-23T03:20:44.371Z,2.52
2019-03-23T03:25:47.711Z,2.66
2019-03-23T03:30:51.041Z,2.55
2019-03-23T03:35:54.377Z,2.43
2019-03-23T03:40:57.711Z,2.30
2019-03-23T03:46:01.101Z,2.38
2019-03-23T03:51:04.414Z,2.10
2019-03-23T03:56:07.742Z,2.11
2019-03-23T04:01:11.073Z,2.04
2019-03-23T04:06:14.407Z,2.15
2019-03-23T04:11:17.725Z,2.17
2019-03-23T04:16:21.062Z,1.98
2019-03-23T04:21:24.382Z,2.02
2019-03-23T04:26:27.734Z,2.10
2019-03-23T04:31:31.065Z,1.88
2019-03-23T04:36:34.641Z,1.90
2019-03-23T04:41:37.961Z,1.92
2019-03-23T04:46:41.374Z,1.63
2019-03-23T04:51:44.732Z,1.72
2019-03-23T04:56:48.056Z,1.56
2019-03-23T05:01:51.444Z,1.32
2019-03-23T05:06:54.783Z,1.47
2019-03-23T05:11:58.122Z,1.46
2019-03-23T05:17:01.475Z,1.34
2019-03-23T05:22:04.877Z,1.32
2019-03-23T05:27:08.203Z,1.46
2019-03-23T05:32:11.535Z,1.42
2019-03-23T05:37:14.887Z,1.44
2019-03-23T05:42:18.216Z,1.62
2019-03-23T05:47:21.542Z,1.62
2019-03-23T05:52:24.870Z,1.51
2019-03-23T05:57:28.190Z,1.49
2019-03-23T06:02:31.547Z,1.60
2019-03-23T06:07:34.880Z,1.83
2019-03-23T06:12:38.207Z,1.90
2019-03-23T06:17:41.541Z,2.05
2019-03-23T06:22:44.955Z,2.19
2019-03-23T06:27:48.288Z,2.50
2019-03-23T06:32:51.694Z,2.58
2019-03-23T06:37:55.062Z,2.80
2019-03-23T06:42:59.833Z,3.06
2019-03-23T06:48:03.403Z,3.25
2019-03-23T06:53:06.725Z,3.27
2019-03-23T06:58:10.059Z,3.41
2019-03-23T07:03:13.389Z,3.76
2019-03-23T07:08:16.719Z,3.90
2019-03-23T07:13:20.199Z,4.01
2019-03-23T07:18:23.518Z,4.26
2019-03-23T07:23:26.863Z,4.54
2019-03-23T07:28:30.226Z,4.85
2019-03-23T07:33:35.513Z,5.25
2019-03-23T07:38:39.829Z,5.36
2019-03-23T07:43:43.157Z,6.02
2019-03-23T07:48:46.488Z,5.88
2019-03-23T07:53:49.820Z,6.18
2019-03-23T07:58:53.166Z,6.31
2019-03-23T08:03:56.494Z,6.59
2019-03-23T08:08:59.816Z,6.92
2019-03-23T08:14:03.162Z,7.12
2019-03-23T08:19:06.515Z,7.33
2019-03-23T08:24:09.858Z,7.76
2019-03-23T08:29:13.179Z,8.14
2019-03-23T08:34:16.597Z,8.36
2019-03-23T08:39:19.927Z,8.97
2019-03-23T08:44:23.280Z,9.83
2019-03-23T08:49:28.619Z,9.76
2019-03-23T08:54:31.682Z,10.23
2019-03-23T08:59:35.022Z,10.39
2019-03-23T09:04:38.347Z,11.62
2019-03-23T09:09:41.705Z,11.30
2019-03-23T09:14:45.124Z,11.88
2019-03-23T09:19:48.475Z,12.28
2019-03-23T09:24:51.834Z,12.63
2019-03-23T09:29:55.165Z,13.88
2019-03-23T09:34:58.649Z,12.87
2019-03-23T09:40:10.063Z,13.10
2019-03-23T09:45:08.067Z,13.43
2019-03-23T09:50:11.655Z,13.53
2019-03-23T09:55:15.003Z,14.11
2019-03-23T10:00:18.345Z,14.85
2019-03-23T10:05:21.767Z,14.54
2019-03-23T10:10:25.119Z,14.66
2019-03-23T10:15:28.452Z,14.46
2019-03-23T10:20:31.792Z,14.97
2019-03-23T10:25:35.161Z,14.73
2019-03-23T10:30:38.507Z,15.45
2019-03-23T10:35:42.788Z,15.96
2019-03-23T10:40:46.121Z,15.99
2019-03-23T10:45:49.468Z,15.57
2019-03-23T10:50:52.808Z,15.52
2019-03-23T10:55:56.230Z,15.98
2019-03-23T11:00:59.629Z,16.33
2019-03-23T11:06:02.998Z,16.15
2019-03-23T11:11:06.337Z,16.29
2019-03-23T11:16:09.674Z,16.43
2019-03-23T11:21:13.024Z,17.13
2019-03-23T11:26:16.370Z,17.43
2019-03-23T11:31:19.725Z,17.58
2019-03-23T11:36:23.066Z,18.25
2019-03-23T11:41:26.410Z,18.43
2019-03-23T11:46:29.754Z,18.11
2019-03-23T11:51:33.101Z,18.36
2019-03-23T11:56:36.437Z,19.96
2019-03-23T12:01:39.783Z,17.62
2019-03-23T12:06:43.118Z,18.86
2019-03-23T12:11:46.469Z,18.89
2019-03-23T12:16:49.817Z,18.66
2019-03-23T12:21:53.155Z,20.34
2019-03-23T12:26:56.505Z,19.72
2019-03-23T12:31:59.853Z,20.23
2019-03-23T12:37:03.203Z,21.12
2019-03-23T12:42:06.541Z,20.24
2019-03-23T12:47:10.152Z,19.71
2019-03-23T12:52:13.503Z,21.07
2019-03-23T12:57:16.927Z,22.19
2019-03-23T13:02:20.274Z,19.70
2019-03-23T13:07:23.607Z,20.87
2019-03-23T13:12:26.954Z,22.13
2019-03-23T13:17:30.306Z,22.35
2019-03-23T13:22:33.700Z,21.70
2019-03-23T13:27:37.112Z,21.70
2019-03-23T13:32:40.456Z,21.47
2019-03-23T13:37:43.844Z,22.99
2019-03-23T13:42:47.241Z,23.95
2019-03-23T13:47:50.590Z,24.19
2019-03-23T13:52:53.935Z,21.54
2019-03-23T13:58:00.462Z,24.16
2019-03-23T14:03:03.809Z,25.30
2019-03-23T14:08:07.262Z,23.67
2019-03-23T14:13:10.656Z,22.21
2019-03-23T14:18:14.019Z,22.89
2019-03-23T14:23:17.376Z,23.27
2019-03-23T14:28:20.727Z,22.58
2019-03-23T14:33:24.116Z,24.42
2019-03-23T14:38:27.463Z,23.76
2019-03-23T14:43:30.817Z,21.67
2019-03-23T14:48:34.160Z,21.04
2019-03-23T14:53:37.503Z,20.11
2019-03-23T14:58:40.850Z,20.80
2019-03-23T15:03:44.199Z,22.44
2019-03-23T15:08:47.551Z,21.65
2019-03-23T15:13:50.937Z,22.19
2019-03-23T15:18:54.316Z,20.10
2019-03-23T15:23:57.882Z,22.47
2019-03-23T15:29:01.231Z,22.22
2019-03-23T15:34:04.844Z,20.96
2019-03-23T15:39:08.652Z,22.27
2019-03-23T15:44:11.995Z,21.03
2019-03-23T15:49:16.290Z,21.59
2019-03-23T15:54:19.632Z,21.33
2019-03-23T15:59:22.978Z,21.51
2019-03-23T16:04:26.329Z,21.50
2019-03-23T16:09:29.691Z,21.13
2019-03-23T16:14:33.036Z,21.11
2019-03-23T16:19:36.397Z,21.76
2019-03-23T16:24:39.748Z,20.95
2019-03-23T16:29:43.100Z,19.47
2019-03-23T16:34:46.500Z,19.19
2019-03-23T16:39:49.849Z,19.10
2019-03-23T16:44:53.201Z,18.98
2019-03-23T16:49:56.557Z,18.53
2019-03-23T16:55:00.180Z,18.30
2019-03-23T17:00:05.498Z,17.82
2019-03-23T17:05:09.083Z,17.74
2019-03-23T17:10:12.518Z,17.29
2019-03-23T17:15:15.935Z,17.02
2019-03-23T17:20:19.334Z,16.68
2019-03-23T17:25:22.682Z,16.22
2019-03-23T17:30:26.037Z,15.86
2019-03-23T17:35:29.417Z,15.15
2019-03-23T17:40:32.929Z,14.96
2019-03-23T17:45:36.365Z,14.27
2019-03-23T17:50:39.772Z,14.18
2019-03-23T17:55:43.153Z,13.60
2019-03-23T18:00:46.519Z,13.18
2019-03-23T18:05:49.944Z,12.89
2019-03-23T18:10:53.331Z,12.83
2019-03-23T18:15:56.777Z,12.93
2019-03-23T18:21:02.100Z,12.28
2019-03-23T18:26:05.810Z,11.80
2019-03-23T18:31:09.151Z,11.93
2019-03-23T18:36:12.593Z,11.48
2019-03-23T18:41:15.983Z,11.79
2019-03-23T18:46:20.270Z,11.59
2019-03-23T18:51:23.748Z,11.30
2019-03-23T18:56:27.146Z,11.09
2019-03-23T19:01:30.577Z,11.00
2019-03-23T19:06:33.934Z,10.79
2019-03-23T19:11:37.339Z,10.62
2019-03-23T19:16:41.324Z,10.41
2019-03-23T19:21:44.867Z,10.16
2019-03-23T19:26:48.176Z,9.82
2019-03-23T19:31:51.557Z,9.94
2019-03-23T19:36:54.978Z,9.83
2019-03-23T19:41:58.385Z,9.56
2019-03-23T19:47:01.700Z,9.42
2019-03-23T19:52:05.122Z,9.32
2019-03-23T19:57:08.500Z,9.10
2019-03-23T20:02:11.893Z,8.90
2019-03-23T20:07:15.249Z,8.85
2019-03-23T20:12:18.683Z,8.47
2019-03-23T20:17:22.143Z,8.58
2019-03-23T20:22:25.502Z,8.58
2019-03-23T20:27:28.909Z,8.35
2019-03-23T20:32:32.361Z,8.00
2019-03-23T20:37:35.728Z,8.13
2019-03-23T20:42:39.135Z,8.02
2019-03-23T20:47:42.561Z,7.86
2019-03-23T20:52:46.080Z,7.73
2019-03-23T20:57:49.480Z,7.54
2019-03-23T21:02:52.894Z,7.57
2019-03-23T21:07:56.347Z,7.51
2019-03-23T21:12:59.777Z,7.42
2019-03-23T21:18:03.139Z,7.34
2019-03-23T21:23:06.525Z,7.06
2019-03-23T21:28:09.970Z,7.18
2019-03-23T21:33:13.442Z,6.89
2019-03-23T21:38:16.910Z,6.68
2019-03-23T21:43:20.285Z,6.88
2019-03-23T21:48:23.635Z,6.69
2019-03-23T21:53:26.979Z,6.56
2019-03-23T21:58:30.385Z,6.58
2019-03-23T22:03:33.706Z,6.41
2019-03-23T22:08:37.154Z,6.35
2019-03-23T22:13:40.446Z,6.37
2019-03-23T22:18:43.826Z,6.25
2019-03-23T22:23:47.628Z,6.15
2019-03-23T22:28:50.986Z,6.12
2019-03-23T22:33:54.402Z,6.07
2019-03-23T22:38:57.697Z,5.96
2019-03-23T22:44:01.031Z,6.15
2019-03-23T22:49:04.498Z,6.09
2019-03-23T22:54:07.848Z,5.85
2019-03-23T22:59:11.253Z,5.72
2019-03-23T23:04:14.795Z,5.57
2019-03-23T23:09:18.073Z,5.60
2019-03-23T23:14:21.415Z,5.61
2019-03-23T23:19:24.776Z,5.55
2019-03-23T23:24:28.109Z,5.61
2019-03-23T23:29:31.614Z,5.85
2019-03-23T23:34:35.017Z,6.11
2019-03-23T23:39:38.385Z,6.29
2019-03-23T23:44:41.707Z,6.18
2019-03-23T23:49:45.064Z,6.20
2019-03-23T23:54:48.408Z,6.15
2019-03-23T23:59:51.753Z,6.06
